Time;durP1;ratioP1;P1;durP2;ratioP2;P2;SDS_P1;SDS_P2;PMS_P1;PMS_P2;Temp;Humidity;BMP_temperature;BMP_pressure;BME280_temperature;BME280_humidity;BME280_pressure;Samples;Min_cycle;Max_cycle;Signal;HPM_P1;HPM_P2
2022/07/28 00:03:05;;;;;;;2.38;0.68;;;;;;;19.14;40.62;100322.38;10459136;28;20489;-58
2022/07/28 00:08:08;;;;;;;2.75;0.30;;;;;;;19.13;41.45;100326.13;10456445;28;20428;-63
2022/07/28 00:13:10;;;;;;;2.00;0.50;;;;;;;19.04;40.73;100319.94;10459677;28;20052;-58
2022/07/28 00:18:11;;;;;;;3.25;0.52;;;;;;;19.03;41.42;100318.25;10453489;28;20055;-59
2022/07/28 00:23:13;;;;;;;2.90;0.60;;;;;;;18.91;41.02;100309.72;10457470;28;20056;-58
2022/07/28 00:28:14;;;;;;;2.30;0.60;;;;;;;18.94;41.58;100305.81;10459554;28;20105;-58
2022/07/28 00:33:17;;;;;;;1.90;0.38;;;;;;;18.82;41.15;100299.94;10454970;28;20079;-58
2022/07/28 00:38:18;;;;;;;5.18;1.17;;;;;;;18.75;41.07;100304.38;10456416;28;20060;-58
2022/07/28 00:43:23;;;;;;;3.53;0.82;;;;;;;18.68;41.28;100296.97;10451832;28;20052;-57
2022/07/28 00:48:24;;;;;;;2.90;0.50;;;;;;;18.62;41.43;100289.59;10454528;28;20071;-57
2022/07/28 00:53:26;;;;;;;4.05;0.50;;;;;;;18.66;41.81;100295.47;10456060;28;20198;-58
2022/07/28 00:58:28;;;;;;;4.10;0.50;;;;;;;18.62;41.51;100292.28;10455018;28;20143;-58
2022/07/28 01:03:30;;;;;;;1.77;0.40;;;;;;;18.60;41.94;100304.25;10453112;28;20135;-58
2022/07/28 01:09:09;;;;;;;3.38;0.60;;;;;;;18.58;42.30;100290.97;10452188;28;20802;-57
2022/07/28 01:14:22;;;;;;;2.30;0.30;;;;;;;18.58;42.02;100284.72;10458102;28;20182;-57
2022/07/28 01:19:51;;;;;;;4.67;0.67;;;;;;;18.54;42.21;100289.66;10447020;28;20553;-58
2022/07/28 01:25:02;;;;;;;1.55;0.57;;;;;;;18.49;42.73;100284.75;10437509;28;20075;-57
2022/07/28 01:30:34;;;;;;;4.18;0.60;;;;;;;18.36;42.68;100277.25;10456750;28;20052;-58
2022/07/28 01:35:43;;;;;;;2.05;0.38;;;;;;;18.42;42.40;100264.06;10453393;28;20131;-58
2022/07/28 01:40:45;;;;;;;2.10;0.70;;;;;;;18.30;43.50;100272.53;10452404;28;20063;-58
2022/07/28 01:45:54;;;;;;;2.38;0.70;;;;;;;18.09;42.74;100269.56;10453333;28;20049;-57
2022/07/28 01:50:56;;;;;;;2.00;0.45;;;;;;;18.05;43.13;100266.38;10456111;28;20048;-57
2022/07/28 01:56:00;;;;;;;1.20;0.70;;;;;;;18.15;42.97;100269.72;10455720;28;20052;-59
2022/07/28 02:01:03;;;;;;;1.05;0.35;;;;;;;18.11;42.81;100254.09;10448929;28;20125;-59
2022/07/28 02:06:06;;;;;;;2.38;0.47;;;;;;;18.19;43.47;100251.34;10463430;28;20123;-58
2022/07/28 02:16:29;;;;;;;3.60;0.50;;;;;;;18.06;42.97;100242.97;10459317;28;20454;-59
2022/07/28 02:21:33;;;;;;;3.50;0.57;;;;;;;17.94;43.41;100242.50;10455629;28;20127;-57
2022/07/28 02:26:43;;;;;;;2.22;0.55;;;;;;;17.99;43.57;100240.97;10459112;28;20052;-59
2022/07/28 02:32:07;;;;;;;2.85;0.38;;;;;;;17.95;43.50;100228.84;10442651;28;20052;-59
2022/07/28 02:37:35;;;;;;;4.00;0.70;;;;;;;17.83;43.38;100231.06;10463297;28;20547;-58
2022/07/28 02:42:39;;;;;;;3.05;0.50;;;;;;;17.77;43.92;100228.19;10464813;28;20154;-58
2022/07/28 02:47:47;;;;;;;2.25;0.40;;;;;;;17.70;43.83;100225.38;10468537;28;20051;-58
2022/07/28 02:52:52;;;;;;;0.98;0.70;;;;;;;17.72;44.66;100219.81;10467058;28;20143;-58
2022/07/28 02:57:56;;;;;;;6.55;1.17;;;;;;;17.71;43.96;100212.75;10461443;28;20592;-58
2022/07/28 03:02:58;;;;;;;1.17;0.80;;;;;;;17.62;44.17;100209.22;10465820;28;20079;-58
2022/07/28 03:07:59;;;;;;;2.25;0.50;;;;;;;17.58;44.30;100205.19;10460226;28;20131;-57
2022/07/28 03:13:03;;;;;;;3.42;0.70;;;;;;;17.55;44.64;100198.31;10461966;28;20307;-58
2022/07/28 03:18:05;;;;;;;1.33;0.40;;;;;;;17.55;45.44;100195.63;10467185;28;20055;-58
2022/07/28 03:23:08;;;;;;;3.72;0.63;;;;;;;17.41;44.94;100213.25;10467466;28;20626;-58
2022/07/28 03:28:16;;;;;;;2.55;0.60;;;;;;;17.31;45.29;100205.38;10468193;28;20159;-58
2022/07/28 03:33:18;;;;;;;2.72;0.55;;;;;;;17.25;45.40;100208.75;10464473;28;20265;-58
2022/07/28 03:38:22;;;;;;;4.30;1.00;;;;;;;17.28;45.51;100218.34;10465439;28;20123;-58
2022/07/28 03:43:26;;;;;;;2.28;0.50;;;;;;;17.26;45.54;100217.66;10463028;28;21455;-58
2022/07/28 03:48:31;;;;;;;3.10;0.90;;;;;;;17.28;45.80;100219.16;10462531;28;20076;-58
2022/07/28 03:53:33;;;;;;;3.88;0.80;;;;;;;17.33;46.32;100226.72;10465986;28;20066;-58
2022/07/28 03:58:34;;;;;;;5.50;0.50;;;;;;;17.25;46.16;100214.13;10463643;28;20142;-58
2022/07/28 04:03:36;;;;;;;2.67;0.70;;;;;;;17.30;45.97;100224.38;10460488;28;20129;-58
2022/07/28 04:08:44;;;;;;;2.08;0.43;;;;;;;17.36;46.25;100209.41;10449532;28;20047;-58
2022/07/28 04:13:45;;;;;;;2.72;0.70;;;;;;;17.48;45.68;100216.97;10464263;28;20140;-58
2022/07/28 04:18:47;;;;;;;2.33;1.00;;;;;;;17.43;45.76;100216.66;10463327;28;20177;-58
2022/07/28 04:23:49;;;;;;;3.00;0.43;;;;;;;17.38;46.36;100212.78;10444010;28;20238;-58
2022/07/28 04:28:50;;;;;;;2.40;0.70;;;;;;;17.38;46.36;100213.59;10458389;28;20139;-58
2022/07/28 04:33:51;;;;;;;3.45;0.77;;;;;;;17.25;46.50;100198.00;10457333;28;20672;-58
2022/07/28 04:38:53;;;;;;;2.97;0.60;;;;;;;17.26;46.35;100202.38;10457477;28;20724;-58
2022/07/28 04:43:54;;;;;;;4.70;0.73;;;;;;;17.30;46.51;100209.06;10450140;28;20122;-58
2022/07/28 04:48:56;;;;;;;3.83;0.75;;;;;;;17.37;46.92;100219.16;10456004;28;20110;-59
2022/07/28 04:53:58;;;;;;;2.95;0.85;;;;;;;17.46;46.67;100226.25;10431348;28;20048;-59
2022/07/28 04:59:00;;;;;;;1.38;0.50;;;;;;;17.55;46.36;100227.03;10429636;28;20074;-59
2022/07/28 05:04:04;;;;;;;2.15;0.80;;;;;;;17.56;46.45;100226.88;10432903;28;20052;-58
2022/07/28 05:09:06;;;;;;;2.40;0.68;;;;;;;17.65;46.56;100220.50;10433503;28;20174;-59
2022/07/28 05:14:08;;;;;;;3.47;0.60;;;;;;;17.80;46.20;100227.84;10436563;28;20629;-59
2022/07/28 05:19:13;;;;;;;3.38;0.70;;;;;;;17.77;46.52;100218.25;10436973;28;20311;-59
2022/07/28 05:24:15;;;;;;;2.72;0.60;;;;;;;17.79;46.66;100218.09;10434461;28;20964;-59
2022/07/28 05:29:17;;;;;;;3.72;1.13;;;;;;;17.84;46.50;100226.50;10433262;28;20068;-59
2022/07/28 05:34:18;;;;;;;2.95;0.60;;;;;;;17.90;47.51;100217.78;10427789;28;20190;-58
2022/07/28 05:39:20;;;;;;;4.43;0.80;;;;;;;17.89;46.39;100221.47;10428004;28;20136;-58
2022/07/28 05:44:21;;;;;;;2.45;0.70;;;;;;;17.87;46.72;100218.09;10425883;28;20063;-58
2022/07/28 05:49:23;;;;;;;2.35;0.50;;;;;;;18.00;47.23;100222.97;10422201;28;20052;-58
2022/07/28 05:54:24;;;;;;;3.67;1.10;;;;;;;18.13;47.31;100219.72;10423056;28;20149;-58
2022/07/28 05:59:26;;;;;;;3.97;0.60;;;;;;;18.22;46.78;100221.38;10427809;28;20074;-58
2022/07/28 06:04:27;;;;;;;4.90;1.38;;;;;;;18.27;47.00;100229.78;10435295;28;20249;-58
2022/07/28 06:09:30;;;;;;;2.88;0.52;;;;;;;18.27;46.43;100224.41;10446040;22;20126;-60
2022/07/28 06:14:31;;;;;;;3.55;1.38;;;;;;;18.44;46.72;100213.56;10393440;28;20224;-64
2022/07/28 06:19:33;;;;;;;4.28;0.75;;;;;;;18.57;46.83;100215.66;10386126;28;21054;-63
2022/07/28 06:24:35;;;;;;;5.78;1.20;;;;;;;18.79;46.13;100216.72;10395128;28;20175;-65
2022/07/28 06:29:36;;;;;;;4.63;1.40;;;;;;;18.91;45.77;100220.72;10396287;28;20140;-64
2022/07/28 06:34:38;;;;;;;6.82;1.30;;;;;;;19.13;47.31;100213.66;10382465;28;20186;-63
2022/07/28 06:39:40;;;;;;;3.17;0.75;;;;;;;19.41;45.16;100216.63;10389022;28;20056;-63
2022/07/28 06:44:41;;;;;;;2.75;1.08;;;;;;;19.68;44.73;100216.19;10389374;28;20195;-64
2022/07/28 06:49:59;;;;;;;3.35;0.93;;;;;;;19.76;43.82;100219.66;10390473;28;20049;-63
2022/07/28 06:55:01;;;;;;;3.08;0.73;;;;;;;19.94;42.09;100229.31;10386955;28;20128;-64
2022/07/28 07:00:06;;;;;;;1.77;0.45;;;;;;;20.18;42.66;100233.59;10382611;28;21197;-63
2022/07/28 07:05:10;;;;;;;3.08;0.70;;;;;;;19.88;42.64;100224.66;10390336;28;20052;-62
2022/07/28 07:10:11;;;;;;;5.65;1.15;;;;;;;19.82;42.90;100223.53;10392941;28;20044;-64
2022/07/28 07:15:13;;;;;;;3.58;0.77;;;;;;;20.00;42.47;100225.03;10400517;28;20052;-63
2022/07/28 07:20:15;;;;;;;2.80;0.90;;;;;;;20.21;42.40;100216.19;10398295;28;20138;-63
2022/07/28 07:25:18;;;;;;;;;;;;;;;20.49;42.37;100219.84;10397419;28;20048;-63
2022/07/28 07:30:20;;;;;;;3.50;0.75;;;;;;;20.81;41.68;100225.88;10401565;28;19925;-65
2022/07/28 07:35:21;;;;;;;5.65;0.77;;;;;;;21.03;40.80;100212.34;10401947;28;20056;-61
2022/07/28 07:40:23;;;;;;;5.15;0.80;;;;;;;21.04;41.07;100202.38;10394378;28;20529;-63
2022/07/28 07:45:25;;;;;;;4.45;0.90;;;;;;;21.18;40.70;100199.59;10393230;28;20053;-61
2022/07/28 07:50:26;;;;;;;2.88;0.80;;;;;;;21.49;39.98;100211.91;10378410;28;20214;-62
2022/07/28 07:55:27;;;;;;;2.75;0.60;;;;;;;21.53;40.24;100199.69;10394760;28;20054;-63
2022/07/28 08:00:38;;;;;;;3.95;0.60;;;;;;;21.96;39.73;100197.91;10387207;28;20052;-62
2022/07/28 08:05:39;;;;;;;2.72;0.68;;;;;;;22.22;38.67;100189.91;10391476;28;20191;-63
2022/07/28 08:10:41;;;;;;;3.88;0.68;;;;;;;22.23;39.22;100191.59;10392394;28;20048;-62
2022/07/28 08:15:42;;;;;;;4.45;0.70;;;;;;;22.62;38.57;100185.69;10393601;28;20247;-64
2022/07/28 08:20:43;;;;;;;3.45;0.88;;;;;;;22.93;38.36;100180.53;10391082;28;20048;-64
2022/07/28 08:25:45;;;;;;;1.85;0.70;;;;;;;23.25;37.76;100179.97;10393787;28;20147;-64
2022/07/28 08:30:46;;;;;;;4.35;0.80;;;;;;;23.34;37.46;100184.16;10378877;28;20067;-65
2022/07/28 08:35:48;;;;;;;2.53;0.65;;;;;;;23.61;37.18;100193.09;10390457;28;20060;-64
2022/07/28 08:40:52;;;;;;;4.47;1.20;;;;;;;23.86;36.85;100186.22;10392705;28;20152;-65
2022/07/28 08:45:54;;;;;;;3.35;0.50;;;;;;;23.76;37.25;100187.44;10389165;28;20153;-65
2022/07/28 08:51:10;;;;;;;4.35;1.05;;;;;;;23.96;36.96;100184.72;10388849;28;20060;-64
2022/07/28 08:56:16;;;;;;;2.55;0.63;;;;;;;24.30;35.99;100188.16;10392865;28;20135;-62
2022/07/28 09:01:17;;;;;;;1.75;0.63;;;;;;;24.55;36.38;100179.25;10384310;28;20175;-63
2022/07/28 09:06:20;;;;;;;3.90;0.88;;;;;;;24.88;35.51;100180.97;10389412;28;20056;-62
2022/07/28 09:11:26;;;;;;;2.35;0.82;;;;;;;24.96;35.58;100175.25;10384867;28;20056;-60
2022/07/28 09:16:28;;;;;;;3.55;0.80;;;;;;;25.10;35.91;100169.72;10392188;28;20175;-59
2022/07/28 09:21:30;;;;;;;5.07;0.93;;;;;;;25.30;35.81;100170.44;10391177;28;20056;-59
2022/07/28 09:26:31;;;;;;;4.10;1.05;;;;;;;25.33;35.30;100159.09;10395589;28;20079;-59
2022/07/28 09:31:32;;;;;;;1.40;0.50;;;;;;;25.50;34.80;100159.34;10388955;28;20105;-59
2022/07/28 09:36:40;;;;;;;2.63;1.02;;;;;;;25.66;35.25;100168.00;10387167;28;20055;-59
2022/07/28 09:41:51;;;;;;;2.42;0.70;;;;;;;25.99;34.48;100159.50;10390722;28;20056;-61
2022/07/28 09:46:54;;;;;;;4.13;0.80;;;;;;;26.32;34.50;100149.22;10392437;28;21493;-61
2022/07/28 09:52:04;;;;;;;2.60;0.60;;;;;;;26.47;34.36;100146.94;10389976;28;20088;-59
2022/07/28 09:57:09;;;;;;;5.38;0.80;;;;;;;26.72;33.16;100138.63;10385739;28;20045;-59
2022/07/28 10:02:11;;;;;;;1.73;0.80;;;;;;;26.92;33.29;100135.59;10373480;28;20045;-59
2022/07/28 10:07:15;;;;;;;3.45;0.80;;;;;;;26.89;32.55;100138.78;10378060;28;20141;-60
2022/07/28 10:12:24;;;;;;;3.83;0.93;;;;;;;27.42;32.58;100126.13;10376727;28;20053;-59
2022/07/28 10:17:32;;;;;;;2.45;0.60;;;;;;;27.69;32.37;100111.97;10377900;28;20069;-59
2022/07/28 10:22:36;;;;;;;2.35;0.60;;;;;;;28.21;31.16;100106.50;10374200;28;20134;-59
2022/07/28 10:27:46;;;;;;;1.90;0.70;;;;;;;28.42;30.97;100101.44;10377901;28;20044;-61
2022/07/28 10:32:47;;;;;;;3.28;0.80;;;;;;;28.24;30.34;100090.66;10383928;28;20167;-59
2022/07/28 10:37:57;;;;;;;3.03;0.95;;;;;;;29.01;29.32;100097.53;10381225;28;20056;-60
2022/07/28 10:42:59;;;;;;;0.93;0.40;;;;;;;29.82;28.30;100088.88;10384263;28;20049;-57
2022/07/28 10:48:01;;;;;;;;;;;;;;;30.41;27.72;100092.84;10388969;28;20124;-57
2022/07/28 10:53:03;;;;;;;;;;;;;;;30.33;27.61;100080.38;10398501;28;20014;-57
2022/07/28 10:58:19;;;;;;;4.97;0.88;;;;;;;30.52;27.51;100072.59;10391511;28;19931;-57
2022/07/28 11:03:39;;;;;;;2.45;0.68;;;;;;;30.48;26.70;100066.00;10396004;28;20492;-59
2022/07/28 11:08:41;;;;;;;3.10;0.77;;;;;;;30.17;27.55;100068.41;10395564;28;20049;-56
2022/07/28 11:13:47;;;;;;;2.40;0.60;;;;;;;30.18;27.72;100067.31;10397166;28;20820;-56
2022/07/28 11:19:00;;;;;;;2.55;0.80;;;;;;;30.78;28.10;100062.69;10399539;28;20097;-57
2022/07/28 11:24:05;;;;;;;3.58;1.05;;;;;;;31.36;26.76;100054.59;10399608;28;20206;-57
2022/07/28 11:29:11;;;;;;;2.65;0.60;;;;;;;31.44;26.13;100052.44;10400218;28;20041;-57
2022/07/28 11:34:13;;;;;;;2.10;0.93;;;;;;;32.01;26.25;100048.00;10394417;28;20100;-57
2022/07/28 11:39:26;;;;;;;3.13;0.90;;;;;;;32.46;24.51;100042.84;10394678;28;20203;-57
2022/07/28 11:44:31;;;;;;;3.00;0.75;;;;;;;32.67;24.00;100033.53;10379126;28;20077;-59
2022/07/28 11:49:33;;;;;;;3.65;0.90;;;;;;;32.23;25.45;100018.34;10379089;28;20052;-55
2022/07/28 11:54:36;;;;;;;1.60;0.63;;;;;;;32.39;25.12;100018.34;10392845;28;20144;-59
2022/07/28 11:59:42;;;;;;;2.47;0.70;;;;;;;32.42;25.14;100013.09;10393570;28;20056;-58
2022/07/28 12:05:02;;;;;;;2.50;0.52;;;;;;;32.09;24.60;100003.41;10387027;28;20048;-59
2022/07/28 12:10:23;;;;;;;2.47;0.50;;;;;;;30.99;26.58;100011.47;10389263;28;20056;-56
2022/07/28 12:15:49;;;;;;;2.43;1.27;;;;;;;29.90;27.70;99994.31;10392411;28;20066;-56
2022/07/28 12:20:52;;;;;;;3.03;0.80;;;;;;;29.38;28.05;100009.28;10387097;28;20137;-57
2022/07/28 12:25:54;;;;;;;3.90;1.05;;;;;;;29.10;28.96;100019.31;10392462;28;20059;-57
2022/07/28 12:31:09;;;;;;;2.38;1.42;;;;;;;28.83;30.04;100006.31;10377035;28;20162;-58
2022/07/28 12:36:10;;;;;;;2.38;0.70;;;;;;;28.91;29.13;100000.41;10375586;28;20167;-58
2022/07/28 12:41:14;;;;;;;2.70;1.10;;;;;;;29.00;29.37;99997.25;10371653;28;20393;-64
2022/07/28 12:46:23;;;;;;;2.55;0.88;;;;;;;28.79;28.79;99991.44;10374461;28;21020;-57
2022/07/28 12:51:34;;;;;;;2.40;0.85;;;;;;;28.71;29.66;99994.63;10368868;28;20055;-58
2022/07/28 12:56:52;;;;;;;2.78;0.88;;;;;;;28.72;29.04;99985.34;10369228;28;20047;-58
2022/07/28 13:01:56;;;;;;;2.85;0.70;;;;;;;28.84;29.34;99983.31;10372088;28;20052;-57
2022/07/28 13:06:57;;;;;;;2.40;0.98;;;;;;;29.33;28.47;99984.56;10369992;28;20876;-59
2022/07/28 13:11:58;;;;;;;2.50;1.00;;;;;;;29.74;28.47;99974.06;10381020;28;20575;-57
2022/07/28 13:17:00;;;;;;;1.45;0.60;;;;;;;29.89;27.50;99976.19;10375265;28;20813;-58
2022/07/28 13:22:02;;;;;;;3.00;0.80;;;;;;;29.85;28.02;99967.66;10377033;28;20041;-58
2022/07/28 13:27:09;;;;;;;2.08;0.77;;;;;;;30.12;27.77;99961.31;10375894;28;20044;-58
2022/07/28 13:32:11;;;;;;;1.30;0.90;;;;;;;30.11;27.14;99965.97;10375704;28;20055;-57
2022/07/28 13:37:13;;;;;;;2.42;0.98;;;;;;;30.15;26.38;99964.38;10377631;28;20210;-58
2022/07/28 13:42:14;;;;;;;1.75;0.80;;;;;;;30.01;27.04;99968.63;10377263;28;20048;-58
2022/07/28 13:47:16;;;;;;;2.70;1.00;;;;;;;29.84;26.88;99955.00;10380990;28;20175;-58
2022/07/28 13:52:18;;;;;;;2.33;1.05;;;;;;;29.88;26.84;99950.66;10374966;28;20160;-57
2022/07/28 13:57:35;;;;;;;3.22;0.98;;;;;;;29.73;27.84;99950.50;10388442;28;20657;-59
2022/07/28 14:02:37;;;;;;;2.70;1.20;;;;;;;29.72;27.31;99954.31;10389400;28;20132;-57
2022/07/28 14:07:44;;;;;;;1.42;0.80;;;;;;;29.87;27.63;99949.00;10372533;28;20084;-66
2022/07/28 14:12:49;;;;;;;4.80;0.85;;;;;;;29.74;26.58;99946.63;10389109;28;20063;-69
2022/07/28 14:17:51;;;;;;;3.90;0.85;;;;;;;29.66;27.95;99939.72;10382078;28;20545;-69
2022/07/28 14:22:53;;;;;;;4.53;0.95;;;;;;;29.50;27.03;99940.63;10389191;28;20052;-68
2022/07/28 14:27:59;;;;;;;2.13;0.60;;;;;;;29.32;28.03;99952.75;10251969;28;20135;-67
2022/07/28 14:33:09;;;;;;;3.10;1.15;;;;;;;29.21;27.44;99944.38;10372120;28;20135;-67
2022/07/28 14:38:11;;;;;;;4.00;1.27;;;;;;;28.91;28.33;99945.63;10409354;28;20537;-68
2022/07/28 14:43:32;;;;;;;1.52;0.73;;;;;;;28.73;28.30;99940.44;10404791;28;20052;-66
2022/07/28 14:48:33;;;;;;;1.93;1.17;;;;;;;28.84;29.25;99935.91;10421427;28;20076;-68
2022/07/28 14:53:35;;;;;;;2.35;1.08;;;;;;;28.88;29.03;99928.84;10413692;28;20044;-66
2022/07/28 14:58:43;;;;;;;2.67;1.13;;;;;;;28.74;28.67;99931.97;10403604;28;20135;-68
2022/07/28 15:03:45;;;;;;;3.33;1.00;;;;;;;28.59;29.06;99941.84;10413280;28;20060;-68
2022/07/28 15:08:47;;;;;;;2.25;1.08;;;;;;;28.49;29.67;99937.84;10418917;28;20540;-68
2022/07/28 15:13:48;;;;;;;2.57;0.90;;;;;;;28.26;29.00;99929.81;10412507;28;20049;-65
2022/07/28 15:18:51;;;;;;;3.47;0.88;;;;;;;28.16;29.96;99934.03;10420897;28;20585;-67
2022/07/28 15:23:53;;;;;;;2.85;0.98;;;;;;;28.08;30.16;99928.16;10420375;28;20720;-65
2022/07/28 15:28:54;;;;;;;3.37;1.10;;;;;;;27.96;29.81;99922.72;10414944;28;20781;-66
2022/07/28 15:33:56;;;;;;;2.40;0.65;;;;;;;27.98;29.93;99921.44;10411879;28;20359;-67
2022/07/28 15:38:58;;;;;;;2.03;1.20;;;;;;;27.97;29.79;99910.72;10396939;28;20071;-66
2022/07/28 15:44:00;;;;;;;2.65;1.40;;;;;;;28.03;30.23;99913.31;10415390;28;20076;-67
2022/07/28 15:49:09;;;;;;;3.07;1.00;;;;;;;28.07;30.29;99908.16;10413219;28;20183;-68
2022/07/28 15:54:11;;;;;;;3.33;1.23;;;;;;;28.09;30.43;99908.75;10412732;28;20071;-67
2022/07/28 15:59:14;;;;;;;7.75;1.60;;;;;;;28.14;30.39;99908.00;10401582;28;20053;-64
2022/07/28 16:04:15;;;;;;;1.77;0.73;;;;;;;28.18;30.21;99910.00;10409926;28;20670;-66
2022/07/28 16:09:17;;;;;;;1.33;1.10;;;;;;;28.18;30.25;99903.72;10412797;28;20505;-68
2022/07/28 16:14:19;;;;;;;2.67;1.07;;;;;;;28.06;30.25;99900.19;10412761;28;20842;-67
2022/07/28 16:19:20;;;;;;;2.17;1.08;;;;;;;27.92;30.24;99892.28;10414417;28;20189;-66
2022/07/28 16:24:42;;;;;;;2.40;1.00;;;;;;;27.73;30.41;99883.50;10403452;28;20525;-67
2022/07/28 16:29:43;;;;;;;2.00;0.95;;;;;;;27.57;30.74;99882.38;10413222;28;20198;-66
2022/07/28 16:34:46;;;;;;;2.83;0.73;;;;;;;27.47;30.28;99872.09;10418118;28;20131;-66
2022/07/28 16:39:48;;;;;;;3.75;1.15;;;;;;;27.33;30.92;99865.25;10416267;28;20183;-69
2022/07/28 16:44:49;;;;;;;3.70;1.42;;;;;;;27.26;31.11;99859.06;10411229;28;20055;-67
2022/07/28 16:49:51;;;;;;;2.20;1.10;;;;;;;27.21;30.66;99845.31;10398471;28;20143;-66
2022/07/28 16:54:52;;;;;;;2.78;1.10;;;;;;;27.23;31.02;99854.09;10410067;28;20132;-68
2022/07/28 16:59:54;;;;;;;1.77;0.98;;;;;;;27.21;31.07;99857.06;10400444;28;20530;-67
2022/07/28 17:04:55;;;;;;;3.13;1.20;;;;;;;27.20;30.67;99851.84;10401769;28;20044;-65
2022/07/28 17:09:56;;;;;;;2.92;1.55;;;;;;;27.15;31.26;99858.03;10401665;28;20063;-66
2022/07/28 17:14:58;;;;;;;3.63;1.38;;;;;;;27.16;30.95;99852.34;10401901;28;20056;-65
2022/07/28 17:20:00;;;;;;;2.95;0.95;;;;;;;27.23;31.06;99848.63;10401577;28;20049;-65
2022/07/28 17:25:02;;;;;;;3.03;1.00;;;;;;;27.14;31.34;99856.38;10423213;28;20052;-65
2022/07/28 17:30:06;;;;;;;2.47;0.90;;;;;;;27.07;31.42;99855.69;10416777;28;20751;-68
2022/07/28 17:35:08;;;;;;;2.33;1.13;;;;;;;27.01;31.41;99843.84;10418328;28;20182;-68
2022/07/28 17:40:29;;;;;;;4.27;0.93;;;;;;;26.94;31.21;99845.88;10415557;28;20045;-67
2022/07/28 17:45:31;;;;;;;3.17;1.20;;;;;;;26.85;31.44;99836.41;10416888;28;20159;-67
2022/07/28 17:50:32;;;;;;;2.75;1.30;;;;;;;26.90;31.73;99852.88;10403519;28;20124;-68
2022/07/28 17:55:35;;;;;;;1.27;0.77;;;;;;;26.87;31.92;99843.25;10395794;28;20186;-67
2022/07/28 18:01:11;;;;;;;2.50;0.75;;;;;;;26.80;31.59;99839.88;10421803;28;20517;-68
2022/07/28 18:06:13;;;;;;;1.95;0.90;;;;;;;26.63;31.95;99837.00;10428918;28;20073;-67
2022/07/28 18:11:14;;;;;;;2.47;1.10;;;;;;;26.55;32.16;99834.66;10443091;22;20393;-72
2022/07/28 18:16:16;;;;;;;2.25;1.35;;;;;;;26.51;32.05;99841.66;10492532;28;20083;-67
2022/07/28 18:21:17;;;;;;;3.20;1.20;;;;;;;26.40;32.49;99846.88;10455112;28;20126;-65
2022/07/28 18:26:19;;;;;;;3.80;1.35;;;;;;;26.26;32.47;99848.19;10477493;28;20133;-67
2022/07/28 18:31:20;;;;;;;3.63;1.00;;;;;;;26.22;32.57;99849.72;10488089;28;20535;-65
2022/07/28 18:36:22;;;;;;;2.38;1.45;;;;;;;26.15;32.57;99860.72;10472392;28;20162;-65
2022/07/28 18:41:23;;;;;;;4.63;1.20;;;;;;;26.08;32.96;99858.13;10487251;28;20505;-65
2022/07/28 18:46:25;;;;;;;3.67;1.23;;;;;;;25.93;32.78;99853.09;10474095;28;20127;-65
2022/07/28 18:51:27;;;;;;;4.15;1.83;;;;;;;25.86;32.88;99857.81;10472200;28;20113;-66
2022/07/28 18:56:29;;;;;;;2.65;0.82;;;;;;;25.76;33.34;99855.69;10473926;28;20152;-66
2022/07/28 19:01:30;;;;;;;3.22;1.30;;;;;;;25.66;33.86;99852.69;10485314;28;20117;-66
2022/07/28 19:06:32;;;;;;;3.28;1.23;;;;;;;25.54;33.59;99860.81;10485824;28;20040;-66
2022/07/28 19:11:34;;;;;;;3.10;0.80;;;;;;;25.47;34.02;99864.72;10471082;28;20040;-64
2022/07/28 19:16:36;;;;;;;4.20;1.33;;;;;;;25.36;34.23;99883.50;10488099;28;20079;-66
2022/07/28 19:21:37;;;;;;;2.90;1.13;;;;;;;25.23;34.60;99879.00;10485202;28;20048;-66
2022/07/28 19:26:45;;;;;;;3.08;1.23;;;;;;;25.17;34.40;99876.38;10484668;28;20048;-66
2022/07/28 19:31:46;;;;;;;4.32;1.23;;;;;;;25.06;34.41;99886.16;10469816;28;20129;-65
2022/07/28 19:36:50;;;;;;;3.10;0.90;;;;;;;25.04;34.23;99894.56;10484979;28;20129;-65
2022/07/28 19:41:51;;;;;;;3.63;0.90;;;;;;;24.94;34.11;99894.25;10479822;28;20583;-68
2022/07/28 19:46:54;;;;;;;2.00;1.25;;;;;;;24.90;34.12;99893.03;10485788;28;20047;-64
2022/07/28 19:51:56;;;;;;;2.13;0.90;;;;;;;24.78;33.92;99892.13;10482872;28;20082;-66
2022/07/28 19:56:59;;;;;;;2.67;1.20;;;;;;;24.70;34.01;99899.53;10479198;28;20143;-65
2022/07/28 20:02:01;;;;;;;;;;;;;;;24.68;34.13;99896.22;10457255;28;20063;-67
2022/07/28 20:07:02;;;;;;;4.10;0.90;;;;;;;24.66;33.91;99892.03;10472171;28;19924;-67
2022/07/28 20:12:04;;;;;;;1.65;0.82;;;;;;;24.60;34.23;99904.66;10465729;28;20196;-66
2022/07/28 20:17:09;;;;;;;3.25;1.30;;;;;;;24.55;34.69;99904.47;10449971;28;20048;-64
2022/07/28 20:22:30;;;;;;;2.30;0.98;;;;;;;24.48;35.24;99895.53;10475553;28;20051;-66
2022/07/28 20:27:31;;;;;;;4.95;1.20;;;;;;;24.36;35.09;99906.31;10467492;28;20520;-70
2022/07/28 20:32:42;;;;;;;3.75;1.30;;;;;;;24.26;35.36;99925.88;10475623;28;20086;-65
2022/07/28 20:37:44;;;;;;;3.63;1.05;;;;;;;24.17;36.52;99938.06;10476817;28;20136;-65
2022/07/28 20:42:45;;;;;;;3.33;0.90;;;;;;;24.12;35.71;99943.31;10452508;28;20055;-66
2022/07/28 20:47:53;;;;;;;6.88;1.27;;;;;;;24.15;35.85;99948.31;10468533;28;20052;-65
2022/07/28 20:52:54;;;;;;;5.10;1.30;;;;;;;24.16;36.01;99958.16;10467575;28;20495;-65
2022/07/28 20:57:56;;;;;;;3.20;1.40;;;;;;;24.13;36.21;99953.16;10461730;28;20119;-66
2022/07/28 21:02:57;;;;;;;4.13;1.20;;;;;;;24.09;36.22;99957.34;10476229;28;21043;-66
2022/07/28 21:07:59;;;;;;;4.05;1.45;;;;;;;24.05;36.59;99951.53;10478145;28;20056;-67
2022/07/28 21:13:09;;;;;;;3.38;1.13;;;;;;;23.98;36.08;99962.44;10465340;28;20058;-66
2022/07/28 21:18:11;;;;;;;3.92;1.42;;;;;;;23.90;36.54;99970.88;10469526;28;20135;-65
2022/07/28 21:23:12;;;;;;;5.05;1.90;;;;;;;23.83;36.37;99978.19;10472717;28;20228;-65
2022/07/28 21:33:38;;;;;;;4.38;1.27;;;;;;;23.75;38.39;99989.28;10442716;28;20404;-56
2022/07/28 21:38:44;;;;;;;3.22;1.35;;;;;;;23.75;37.84;99994.72;10344516;28;20052;-54
2022/07/28 21:43:45;;;;;;;4.63;1.02;;;;;;;23.73;38.23;99992.22;10473563;28;20040;-55
2022/07/28 21:48:49;;;;;;;5.25;1.23;;;;;;;23.71;37.73;99991.63;10486681;28;20048;-56
2022/07/28 21:53:52;;;;;;;3.53;1.23;;;;;;;23.67;37.09;99995.00;10482603;28;20058;-56
2022/07/28 21:58:53;;;;;;;4.53;0.85;;;;;;;23.56;37.61;99981.03;10462289;28;20275;-55
2022/07/28 22:03:55;;;;;;;2.92;1.25;;;;;;;23.50;38.27;99981.91;10480557;28;20533;-56
2022/07/28 22:08:56;;;;;;;2.63;0.85;;;;;;;23.39;37.74;99996.13;10483844;28;20124;-55
2022/07/28 22:13:57;;;;;;;3.78;1.40;;;;;;;23.36;37.81;99997.41;10482613;28;20036;-54
2022/07/28 22:18:59;;;;;;;4.95;1.00;;;;;;;23.36;37.78;99996.56;10483732;28;20125;-56
2022/07/28 22:24:00;;;;;;;5.25;1.23;;;;;;;23.33;37.80;99999.69;10481427;28;20634;-56
2022/07/28 22:29:02;;;;;;;4.57;1.70;;;;;;;23.23;37.51;99992.00;10483059;28;20080;-53
2022/07/28 22:34:03;;;;;;;6.38;1.20;;;;;;;23.18;36.71;99989.94;10479658;28;20048;-56
2022/07/28 22:39:04;;;;;;;4.18;1.17;;;;;;;23.23;37.06;99992.84;10453624;28;20052;-54
2022/07/28 22:44:06;;;;;;;5.68;1.30;;;;;;;23.19;37.38;99982.63;10474677;28;20047;-55
2022/07/28 22:49:07;;;;;;;3.88;1.00;;;;;;;23.17;37.42;99982.84;10484421;28;20044;-56
2022/07/28 22:54:09;;;;;;;3.90;0.95;;;;;;;23.14;36.43;99980.53;10487523;28;20113;-54
2022/07/28 22:59:12;;;;;;;6.55;1.67;;;;;;;23.06;36.94;99981.59;10489444;28;20064;-56
2022/07/28 23:04:18;;;;;;;6.93;1.40;;;;;;;23.05;37.90;99970.94;10491281;28;20047;-57
2022/07/28 23:09:22;;;;;;;3.25;1.35;;;;;;;23.04;36.53;99967.38;10490482;28;20399;-56
2022/07/28 23:14:24;;;;;;;3.72;1.15;;;;;;;23.00;36.81;99971.56;10471834;28;20109;-57
2022/07/28 23:19:25;;;;;;;3.45;1.05;;;;;;;22.97;37.22;99963.00;10489106;28;20123;-56
2022/07/28 23:24:26;;;;;;;3.70;1.00;;;;;;;22.95;36.76;99974.06;10489041;28;20044;-53
2022/07/28 23:29:28;;;;;;;3.33;1.10;;;;;;;22.90;36.88;99974.72;10487684;28;20060;-55
2022/07/28 23:34:29;;;;;;;3.30;1.25;;;;;;;22.87;37.13;99961.56;10488052;28;20048;-53
2022/07/28 23:39:30;;;;;;;2.88;1.05;;;;;;;22.82;37.38;99958.66;10487751;28;20339;-54